createdAt,value
2022-10-25T00:01:53.250Z,1017.92
2022-10-25T00:15:53.139Z,1017.63
2022-10-25T00:29:53.146Z,1017.89
2022-10-25T00:53:14.538Z,1017.67
2022-10-25T01:07:14.523Z,1017.78
2022-10-25T01:21:15.004Z,1017.73
2022-10-25T01:35:15.110Z,1017.81
2022-10-25T01:49:15.122Z,1017.72
2022-10-25T02:03:15.132Z,1017.58
2022-10-25T02:17:15.241Z,1017.57
2022-10-25T02:31:15.538Z,1017.91
2022-10-25T02:45:15.473Z,1017.71
2022-10-25T02:59:15.460Z,1017.74
2022-10-25T03:13:15.480Z,1017.83
2022-10-25T03:27:15.489Z,1018.1
2022-10-25T03:41:15.480Z,1018.03
2022-10-25T03:55:15.510Z,1018.25
2022-10-25T04:09:15.514Z,1018.06
2022-10-25T04:23:15.596Z,1018.12
2022-10-25T04:37:15.635Z,1018.69
2022-10-25T04:51:15.638Z,1018.64
2022-10-25T05:05:15.708Z,1018.73
2022-10-25T05:19:15.759Z,1019.05
2022-10-25T05:33:15.780Z,1019.06
2022-10-25T05:48:15.909Z,1018.98
2022-10-25T06:03:15.919Z,1018.96
2022-10-25T06:18:15.916Z,1019.29
2022-10-25T06:33:15.913Z,1019.53
2022-10-25T06:49:15.931Z,1019.85
2022-10-25T07:04:16.035Z,1019.91
2022-10-25T07:19:16.050Z,1020.07
2022-10-25T07:34:16.143Z,1020.17
2022-10-25T07:49:16.244Z,1020.36
2022-10-25T08:04:16.246Z,1020.39
2022-10-25T08:19:16.257Z,1020.49
2022-10-25T08:34:16.272Z,1020.49
2022-10-25T08:49:16.278Z,1020.59
2022-10-25T09:04:16.313Z,1020.61
2022-10-25T09:19:16.302Z,1020.57
2022-10-25T09:34:16.497Z,1020.55
2022-10-25T09:49:16.427Z,1020.58
2022-10-25T10:04:16.435Z,1020.62
2022-10-25T10:19:16.436Z,1020.69
2022-10-25T10:34:17.375Z,1020.73
2022-10-25T11:04:00.295Z,1020.45
2022-10-25T11:18:54.847Z,1020.44
2022-10-25T11:33:53.642Z,1020.27
2022-10-25T11:48:53.799Z,1020.07
2022-10-25T12:03:53.886Z,1020.07
2022-10-25T12:18:53.782Z,1019.92
2022-10-25T12:33:53.863Z,1019.93
2022-10-25T12:48:53.854Z,1019.9
2022-10-25T13:03:53.879Z,1019.79
2022-10-25T13:18:54.114Z,1019.76
2022-10-25T13:33:54.207Z,1019.81
2022-10-25T13:48:54.216Z,1019.79
2022-10-25T14:03:54.282Z,1019.82
2022-10-25T14:18:54.405Z,1019.82
2022-10-25T14:33:54.536Z,1019.77
2022-10-25T14:48:54.620Z,1019.78
2022-10-25T15:03:54.639Z,1019.72
2022-10-25T15:19:54.712Z,1019.73
2022-10-25T15:34:54.665Z,1019.64
2022-10-25T15:49:54.804Z,1019.73
2022-10-25T16:04:54.700Z,1019.71
2022-10-25T16:20:54.704Z,1019.73
2022-10-25T16:35:54.791Z,1019.83
2022-10-25T16:50:54.858Z,1019.93
2022-10-25T17:04:54.923Z,1020.08
2022-10-25T17:18:54.936Z,1020.12
2022-10-25T17:32:54.952Z,1020.33
2022-10-25T17:46:55.565Z,1020.36
2022-10-25T18:00:54.995Z,1020.48
2022-10-25T18:14:55.545Z,1020.62
2022-10-25T18:28:54.999Z,1020.55
2022-10-25T18:42:55.014Z,1020.67
2022-10-25T18:56:55.008Z,1020.56
2022-10-25T19:10:55.026Z,1020.58
2022-10-25T19:24:55.070Z,1020.68
2022-10-25T19:38:55.184Z,1020.84
2022-10-25T19:52:55.217Z,1020.62
2022-10-25T20:06:55.203Z,1020.8
2022-10-25T20:20:55.211Z,1020.76
2022-10-25T20:34:55.292Z,1020.85
2022-10-25T20:48:55.226Z,1020.89
2022-10-25T21:02:55.238Z,1021.04
2022-10-25T21:16:55.224Z,1021.01
2022-10-25T21:30:55.601Z,1021.03
2022-10-25T21:44:56.147Z,1021.01
2022-10-25T21:58:56.119Z,1020.89
2022-10-25T22:12:56.096Z,1020.94
2022-10-25T22:26:56.103Z,1020.95
2022-10-25T22:40:56.077Z,1021.01
2022-10-25T22:54:56.146Z,1021.1
2022-10-25T23:08:56.117Z,1021.17
2022-10-25T23:22:56.098Z,1021.04
2022-10-25T23:36:56.095Z,1021.09
2022-10-25T23:50:56.122Z,1021.22
